Aviation Digital Data Service (ADDS)

Output produced by METARs form (1020 UTC 28 July 2015)
found at http://aviationweather.gov/adds/metars/
 
KINT 280939Z 2810/2906 VRB03KT P6SM SCT070 BKN150 
     TEMPO 2811/2812 4SM BR BKN006 
     FM281400 VRB03KT P6SM SCT040 BKN150 
     PROB30 2819/2824 5SM TSRA BKN035CB